Time;durP1;ratioP1;P1;durP2;ratioP2;P2;SDS_P1;SDS_P2;PMS_P1;PMS_P2;Temp;Humidity;BMP_temperature;BMP_pressure;BME280_temperature;BME280_humidity;BME280_pressure;Samples;Min_cycle;Max_cycle;Signal;HPM_P1;HPM_P2
2021/11/28 00:01:14;;;;;;;8.45;3.28;;;3.40;99.20;;;;;;5018493;28;20401;-56
2021/11/28 00:03:41;;;;;;;9.00;3.58;;;3.30;98.90;;;;;;5018836;28;20902;-54
2021/11/28 00:06:17;;;;;;;7.30;3.92;;;3.30;99.30;;;;;;5018781;28;20118;-56
2021/11/28 00:11:34;;;;;;;5.85;3.15;;;3.20;99.30;;;;;;5019777;28;20092;-55
2021/11/28 00:16:30;;;;;;;7.88;3.35;;;3.30;98.90;;;;;;5018775;28;20111;-56
2021/11/28 00:18:57;;;;;;;8.50;3.67;;;3.30;98.90;;;;;;5019051;28;20053;-56
2021/11/28 00:21:24;;;;;;;9.40;4.28;;;3.20;99.00;;;;;;5019125;28;20084;-55
2021/11/28 00:23:51;;;;;;;5.68;3.55;;;3.30;99.20;;;;;;5002170;28;20132;-55
2021/11/28 00:26:17;;;;;;;6.63;3.30;;;3.20;99.00;;;;;;5019760;28;20114;-56
2021/11/28 00:28:44;;;;;;;7.00;3.38;;;3.20;99.30;;;;;;5018785;28;20551;-55
2021/11/28 00:31:11;;;;;;;5.88;3.28;;;3.20;99.00;;;;;;5017405;28;20140;-55
2021/11/28 00:33:38;;;;;;;9.85;4.43;;;3.20;99.20;;;;;;5016507;28;20160;-56
2021/11/28 00:36:05;;;;;;;7.30;5.00;;;3.10;99.50;;;;;;5017821;28;20057;-55
2021/11/28 00:38:33;;;;;;;8.70;4.00;;;3.10;99.00;;;;;;5019452;28;20061;-55
2021/11/28 00:41:00;;;;;;;9.18;3.72;;;3.10;99.90;;;;;;5017787;28;20060;-55
2021/11/28 00:43:26;;;;;;;6.05;3.78;;;3.10;99.10;;;;;;5018807;28;20133;-56
2021/11/28 00:45:53;;;;;;;11.60;4.80;;;3.10;99.10;;;;;;5018216;28;20692;-56
2021/11/28 00:48:23;;;;;;;9.75;4.72;;;3.00;99.50;;;;;;5018886;28;20063;-56
2021/11/28 00:51:00;;;;;;;7.50;4.00;;;2.90;99.40;;;;;;5019244;28;20049;-56
2021/11/28 00:53:27;;;;;;;10.05;3.25;;;2.80;99.40;;;;;;5019389;28;20603;-56
2021/11/28 00:55:53;;;;;;;5.68;3.22;;;2.80;99.90;;;;;;5018889;28;20127;-57
2021/11/28 00:58:20;;;;;;;8.32;3.53;;;2.80;99.90;;;;;;5019070;28;20585;-55
2021/11/28 01:00:47;;;;;;;9.73;3.58;;;2.80;99.80;;;;;;5018038;28;20511;-55
2021/11/28 01:03:14;;;;;;;6.18;3.22;;;2.70;99.90;;;;;;5018807;28;20493;-59
2021/11/28 01:05:41;;;;;;;7.93;4.38;;;2.70;99.90;;;;;;5017993;28;20091;-52
2021/11/28 01:08:07;;;;;;;7.38;4.82;;;2.70;99.70;;;;;;5019164;28;20088;-56
2021/11/28 01:10:34;;;;;;;8.57;4.55;;;2.80;99.90;;;;;;5018890;28;20042;-52
2021/11/28 01:13:01;;;;;;;12.60;4.65;;;2.80;99.90;;;;;;5018521;28;20627;-54
2021/11/28 01:15:27;;;;;;;9.57;4.95;;;2.80;99.90;;;;;;5018149;28;20058;-54
2021/11/28 01:17:54;;;;;;;11.63;5.35;;;2.80;99.70;;;;;;5020325;28;20136;-53
2021/11/28 01:20:21;;;;;;;11.82;6.00;;;2.80;99.80;;;;;;5022559;28;20152;-56
2021/11/28 01:22:48;;;;;;;12.82;5.75;;;2.80;99.90;;;;;;5021093;28;20569;-55
2021/11/28 01:25:14;;;;;;;11.82;5.55;;;2.80;99.90;;;;;;5022790;28;20081;-53
2021/11/28 01:27:42;;;;;;;9.82;5.72;;;2.80;99.70;;;;;;5020452;28;20073;-52
2021/11/28 01:30:09;;;;;;;7.05;4.75;;;2.80;99.60;;;;;;5021262;28;20136;-55
2021/11/28 01:32:36;;;;;;;10.60;5.53;;;2.80;99.80;;;;;;5022348;28;20127;-56
2021/11/28 01:35:04;;;;;;;10.38;6.30;;;2.80;99.70;;;;;;5020346;28;20482;-52
2021/11/28 01:37:34;;;;;;;8.50;6.10;;;2.80;99.80;;;;;;5021989;28;20057;-55
2021/11/28 01:40:06;;;;;;;10.88;5.68;;;2.80;99.90;;;;;;5022458;28;20077;-55
2021/11/28 01:42:49;;;;;;;11.35;6.25;;;2.80;99.60;;;;;;5021794;28;20045;-54
2021/11/28 01:45:28;;;;;;;9.40;5.45;;;2.80;99.60;;;;;;5021517;28;20136;-56
2021/11/28 01:47:56;;;;;;;8.90;5.50;;;2.80;99.60;;;;;;5004097;28;20076;-55
2021/11/28 01:50:23;;;;;;;9.57;6.03;;;2.70;99.90;;;;;;5021675;28;20135;-53
2021/11/28 01:52:50;;;;;;;12.88;5.88;;;2.70;99.90;;;;;;5021782;28;20144;-56
2021/11/28 01:55:19;;;;;;;10.95;6.32;;;2.70;99.70;;;;;;5021756;28;20650;-53
2021/11/28 01:57:46;;;;;;;10.95;5.70;;;2.70;99.50;;;;;;5020412;28;20527;-54
2021/11/28 02:00:15;;;;;;;10.85;5.75;;;2.70;99.90;;;;;;5020442;28;20559;-54
2021/11/28 02:02:43;;;;;;;9.65;6.18;;;2.60;99.90;;;;;;5021623;28;20080;-54
2021/11/28 02:05:09;;;;;;;9.32;5.72;;;2.60;99.70;;;;;;5020193;28;20064;-52
2021/11/28 02:07:36;;;;;;;11.13;6.25;;;2.70;99.80;;;;;;5021742;28;20049;-55
2021/11/28 02:10:04;;;;;;;12.93;6.18;;;2.70;99.70;;;;;;5021483;28;20089;-54
2021/11/28 02:12:31;;;;;;;9.32;6.10;;;2.60;99.50;;;;;;5021313;28;20478;-53
2021/11/28 02:14:58;;;;;;;9.73;5.53;;;2.60;99.80;;;;;;5019098;28;20136;-56
2021/11/28 02:17:24;;;;;;;10.10;5.95;;;2.60;99.90;;;;;;5021876;28;20202;-55
2021/11/28 02:19:51;;;;;;;10.02;5.25;;;2.60;99.50;;;;;;5020772;28;20132;-53
2021/11/28 02:22:18;;;;;;;10.82;5.80;;;2.60;99.80;;;;;;5021467;28;20203;-56
2021/11/28 02:24:45;;;;;;;8.13;5.63;;;2.60;99.80;;;;;;5021618;28;20103;-56
2021/11/28 02:27:12;;;;;;;9.77;5.47;;;2.60;99.80;;;;;;5020829;28;20115;-54
2021/11/28 02:29:40;;;;;;;10.35;4.88;;;2.50;99.90;;;;;;5018880;28;20570;-55
2021/11/28 02:32:07;;;;;;;7.65;4.53;;;2.60;99.90;;;;;;5007264;28;20129;-51
2021/11/28 02:34:34;;;;;;;11.25;5.18;;;2.60;99.90;;;;;;5006953;28;20125;-56
2021/11/28 02:37:00;;;;;;;9.23;5.13;;;2.60;99.90;;;;;;5010893;28;20137;-54
2021/11/28 02:39:27;;;;;;;8.35;4.97;;;2.50;99.90;;;;;;5027960;28;20095;-55
2021/11/28 02:41:54;;;;;;;12.05;5.45;;;2.50;99.90;;;;;;5028506;28;20077;-54
2021/11/28 02:44:20;;;;;;;8.43;5.18;;;2.50;99.90;;;;;;5027010;28;20084;-54
2021/11/28 02:46:47;;;;;;;11.82;5.95;;;2.50;99.90;;;;;;5024967;28;21051;-55
2021/11/28 02:49:15;;;;;;;9.93;5.38;;;2.50;99.90;;;;;;5026220;28;20049;-56
2021/11/28 02:51:42;;;;;;;8.60;5.38;;;2.50;99.90;;;;;;5026791;28;20081;-55
2021/11/28 02:54:09;;;;;;;9.68;5.32;;;2.50;99.90;;;;;;5026756;28;20268;-55
2021/11/28 02:56:36;;;;;;;10.43;5.85;;;2.40;99.90;;;;;;5022846;28;20129;-56
2021/11/28 02:59:02;;;;;;;11.40;6.47;;;2.40;99.90;;;;;;5023853;28;20124;-54
2021/11/28 03:01:29;;;;;;;12.48;7.00;;;2.40;99.90;;;;;;5023905;28;20091;-55
2021/11/28 03:03:56;;;;;;;14.65;7.05;;;2.40;99.90;;;;;;5024958;28;20045;-54
2021/11/28 03:06:23;;;;;;;11.10;6.43;;;2.40;99.90;;;;;;5020743;28;20052;-56
2021/11/28 03:08:50;;;;;;;11.32;6.05;;;2.40;99.90;;;;;;5019610;28;20081;-53
2021/11/28 03:11:16;;;;;;;10.80;5.72;;;2.50;99.90;;;;;;5014591;28;20045;-54
2021/11/28 03:13:45;;;;;;;11.98;6.53;;;2.50;99.90;;;;;;5023459;28;20559;-55
2021/11/28 03:16:19;;;;;;;9.57;5.75;;;2.50;99.90;;;;;;5022918;28;20080;-56
2021/11/28 03:18:47;;;;;;;10.50;5.35;;;2.50;99.90;;;;;;5024211;28;20056;-54
2021/11/28 03:21:16;;;;;;;11.40;5.03;;;2.50;99.90;;;;;;5020002;28;20465;-56
2021/11/28 03:23:44;;;;;;;8.05;4.60;;;2.50;99.90;;;;;;5020619;28;20076;-54
2021/11/28 03:26:17;;;;;;;10.57;5.40;;;2.50;99.90;;;;;;5021948;28;20591;-55
2021/11/28 03:28:52;;;;;;;11.33;4.60;;;2.40;99.90;;;;;;5022861;28;20124;-56
2021/11/28 03:31:19;;;;;;;11.23;4.63;;;2.30;99.90;;;;;;5022297;28;20163;-56
2021/11/28 03:33:46;;;;;;;7.38;3.80;;;2.30;99.90;;;;;;5024186;28;20076;-56
2021/11/28 03:36:14;;;;;;;11.90;4.45;;;2.30;99.90;;;;;;5023211;28;20192;-57
2021/11/28 03:38:41;;;;;;;10.00;4.10;;;2.20;99.90;;;;;;5024593;28;20072;-56
2021/11/28 03:41:08;;;;;;;9.35;4.68;;;2.20;99.90;;;;;;5025261;28;20053;-56
2021/11/28 03:43:35;;;;;;;8.73;4.97;;;2.10;99.90;;;;;;5023890;28;20124;-56
2021/11/28 03:46:02;;;;;;;7.25;3.22;;;2.10;99.90;;;;;;5024054;28;20128;-55
2021/11/28 03:48:29;;;;;;;8.20;3.67;;;2.00;99.90;;;;;;5025193;28;20067;-56
2021/11/28 03:50:56;;;;;;;7.38;3.47;;;2.00;99.90;;;;;;5025461;28;20132;-55
2021/11/28 03:53:23;;;;;;;9.57;3.20;;;1.90;99.90;;;;;;5024554;28;20049;-54
2021/11/28 03:55:51;;;;;;;6.15;2.85;;;1.90;99.90;;;;;;5024122;28;20135;-54
2021/11/28 03:58:18;;;;;;;5.85;2.75;;;1.80;99.90;;;;;;5024157;28;20570;-55
2021/11/28 04:00:45;;;;;;;7.22;3.35;;;1.80;99.90;;;;;;5024435;28;20128;-52
2021/11/28 04:03:12;;;;;;;4.43;2.15;;;1.70;99.90;;;;;;5025352;28;20052;-55
2021/11/28 04:05:39;;;;;;;4.97;3.08;;;1.70;99.90;;;;;;5025243;28;20132;-55
2021/11/28 04:08:06;;;;;;;6.35;2.60;;;1.70;99.90;;;;;;5023721;28;20140;-55
2021/11/28 04:10:33;;;;;;;7.82;3.67;;;1.70;99.90;;;;;;5024860;28;20111;-56
2021/11/28 04:13:00;;;;;;;6.50;3.30;;;1.60;99.90;;;;;;5025531;28;20148;-51
2021/11/28 04:15:27;;;;;;;5.90;2.90;;;1.60;99.90;;;;;;5024679;28;20080;-54
2021/11/28 04:17:53;;;;;;;5.47;2.53;;;1.60;99.90;;;;;;5024993;28;20056;-55
2021/11/28 04:20:20;;;;;;;7.32;2.88;;;1.60;99.90;;;;;;5025203;28;20498;-56
2021/11/28 04:22:47;;;;;;;5.82;2.72;;;1.50;99.90;;;;;;5025000;28;20092;-55
2021/11/28 04:25:14;;;;;;;7.55;2.92;;;1.50;99.90;;;;;;5025608;28;20095;-54
2021/11/28 04:27:41;;;;;;;4.32;2.33;;;1.40;99.90;;;;;;5025116;28;20077;-54
2021/11/28 04:30:09;;;;;;;6.90;2.95;;;1.40;99.90;;;;;;5024000;28;20116;-56
2021/11/28 04:32:35;;;;;;;6.00;3.10;;;1.40;99.90;;;;;;5024230;28;20129;-54
2021/11/28 04:35:03;;;;;;;9.30;3.33;;;1.40;99.90;;;;;;5024734;28;20081;-55
2021/11/28 04:37:30;;;;;;;5.60;3.20;;;1.40;99.90;;;;;;5025361;28;20054;-54
2021/11/28 04:39:56;;;;;;;5.15;3.22;;;1.40;99.90;;;;;;5023639;28;20572;-51
2021/11/28 04:42:23;;;;;;;6.63;2.80;;;1.40;99.90;;;;;;5024359;28;20092;-57
2021/11/28 04:44:50;;;;;;;5.68;3.08;;;1.40;99.90;;;;;;5023587;28;20060;-53
2021/11/28 04:47:18;;;;;;;6.22;2.80;;;1.40;99.90;;;;;;5025343;28;20104;-55
2021/11/28 04:49:45;;;;;;;8.30;3.28;;;1.40;99.90;;;;;;5024839;28;20120;-55
2021/11/28 04:52:12;;;;;;;6.03;2.83;;;1.30;99.90;;;;;;5025617;28;20100;-55
2021/11/28 04:54:39;;;;;;;5.20;2.20;;;1.40;99.90;;;;;;5028829;28;20073;-56
2021/11/28 04:57:06;;;;;;;5.95;2.97;;;1.30;99.90;;;;;;5029054;28;20539;-56
2021/11/28 04:59:32;;;;;;;7.97;3.08;;;1.30;99.90;;;;;;5027309;28;20076;-56
2021/11/28 05:01:59;;;;;;;6.10;2.47;;;1.30;99.90;;;;;;5028664;28;20096;-56
2021/11/28 05:04:26;;;;;;;6.25;2.33;;;1.30;99.90;;;;;;5026258;28;20166;-56
2021/11/28 05:06:53;;;;;;;6.85;2.55;;;1.30;99.90;;;;;;5028792;28;20469;-56
2021/11/28 05:09:20;;;;;;;8.15;2.88;;;1.20;99.90;;;;;;5028283;28;20104;-57
2021/11/28 05:11:47;;;;;;;7.10;2.60;;;1.20;99.90;;;;;;5028033;28;20132;-55
2021/11/28 05:14:13;;;;;;;6.65;3.25;;;1.20;99.90;;;;;;5025304;28;20157;-53
2021/11/28 05:16:41;;;;;;;10.05;3.08;;;1.20;99.90;;;;;;5026944;28;21296;-54
2021/11/28 05:19:08;;;;;;;6.10;2.92;;;1.20;99.90;;;;;;5026657;28;20053;-53
2021/11/28 05:21:35;;;;;;;5.43;3.10;;;1.20;99.90;;;;;;5026213;28;20095;-54
2021/11/28 05:24:02;;;;;;;6.90;2.35;;;1.20;99.90;;;;;;5025374;28;20164;-56
2021/11/28 05:26:28;;;;;;;5.55;2.40;;;1.20;99.90;;;;;;5026908;28;20099;-56
2021/11/28 05:28:55;;;;;;;6.90;2.28;;;1.20;99.90;;;;;;5026820;28;20125;-55
2021/11/28 05:31:22;;;;;;;5.60;2.17;;;1.10;99.90;;;;;;5025848;28;20124;-55
2021/11/28 05:33:49;;;;;;;5.90;2.45;;;1.10;99.90;;;;;;5026598;28;20053;-55
2021/11/28 05:36:16;;;;;;;5.97;2.33;;;1.10;99.90;;;;;;5026610;28;20041;-55
2021/11/28 05:38:43;;;;;;;4.78;2.00;;;1.10;99.90;;;;;;5026645;28;20158;-53
2021/11/28 05:41:10;;;;;;;8.50;2.03;;;1.10;99.90;;;;;;5026758;28;20133;-51
2021/11/28 05:43:40;;;;;;;10.05;2.00;;;1.10;99.90;;;;;;5022399;28;20746;-49
2021/11/28 05:46:07;;;;;;;6.10;2.22;;;1.10;99.90;;;;;;5025084;28;20668;-54
2021/11/28 05:48:34;;;;;;;4.57;2.10;;;1.00;99.90;;;;;;5020572;28;20045;-52
2021/11/28 05:51:01;;;;;;;5.07;1.77;;;1.00;99.90;;;;;;5023450;28;20140;-52
2021/11/28 05:53:28;;;;;;;7.32;2.42;;;1.00;99.90;;;;;;5024593;28;20073;-51
2021/11/28 05:55:54;;;;;;;4.55;2.00;;;1.00;99.90;;;;;;5023291;28;20096;-55
2021/11/28 05:58:21;;;;;;;6.35;2.08;;;1.00;99.90;;;;;;5024102;28;20735;-53
2021/11/28 06:00:49;;;;;;;5.93;2.15;;;1.00;99.90;;;;;;5023993;28;20095;-55
2021/11/28 06:03:15;;;;;;;5.60;2.65;;;1.00;99.90;;;;;;5021509;28;20212;-51
2021/11/28 06:05:44;;;;;;;5.22;2.33;;;1.00;99.90;;;;;;5022959;28;20047;-55
2021/11/28 06:08:10;;;;;;;5.38;2.08;;;1.00;99.90;;;;;;5021055;28;20148;-54
2021/11/28 06:10:37;;;;;;;6.07;1.92;;;1.00;99.90;;;;;;5018458;28;20076;-54
2021/11/28 06:13:04;;;;;;;6.32;2.63;;;1.00;99.90;;;;;;5021569;28;20128;-51
2021/11/28 06:15:31;;;;;;;5.00;2.28;;;1.00;99.90;;;;;;5021036;28;20145;-55
2021/11/28 06:17:58;;;;;;;7.03;2.58;;;1.00;99.90;;;;;;5021649;28;20345;-50
2021/11/28 06:20:24;;;;;;;4.18;1.70;;;1.00;99.90;;;;;;5021052;28;20073;-51
2021/11/28 06:22:52;;;;;;;5.18;1.73;;;1.00;99.90;;;;;;5022183;28;20103;-56
2021/11/28 06:25:19;;;;;;;2.78;1.40;;;1.00;99.90;;;;;;5020135;28;20056;-51
2021/11/28 06:28:05;;;;;;;2.75;1.10;;;1.00;99.90;;;;;;5018134;28;20173;-53
2021/11/28 06:30:32;;;;;;;3.97;1.67;;;1.00;99.90;;;;;;5019034;28;20164;-54
2021/11/28 06:32:59;;;;;;;5.50;1.92;;;0.90;99.90;;;;;;5021282;28;20515;-56
2021/11/28 06:35:26;;;;;;;8.48;1.98;;;0.90;99.90;;;;;;5021398;28;20132;-55
2021/11/28 06:37:54;;;;;;;6.13;2.10;;;0.90;99.90;;;;;;5024593;28;20499;-54
2021/11/28 06:40:20;;;;;;;5.60;2.25;;;1.00;99.90;;;;;;5024734;28;20045;-55
2021/11/28 06:42:47;;;;;;;6.63;2.28;;;1.00;99.90;;;;;;5020371;28;20164;-56
2021/11/28 06:45:14;;;;;;;5.57;1.70;;;1.00;99.90;;;;;;5020481;28;20132;-55
2021/11/28 06:47:45;;;;;;;5.05;1.52;;;1.00;99.90;;;;;;5021107;28;20120;-54
2021/11/28 06:50:12;;;;;;;3.60;1.52;;;1.00;99.90;;;;;;5021256;28;20134;-55
2021/11/28 06:52:39;;;;;;;5.47;1.80;;;1.00;99.90;;;;;;5021266;28;20087;-55
2021/11/28 06:55:06;;;;;;;6.07;1.75;;;1.00;99.90;;;;;;5020515;28;20543;-56
2021/11/28 06:57:33;;;;;;;6.30;1.92;;;1.00;99.90;;;;;;5020646;28;20603;-55
2021/11/28 07:00:00;;;;;;;7.75;1.60;;;1.00;99.90;;;;;;5019982;28;20052;-54
2021/11/28 07:02:26;;;;;;;4.35;1.40;;;1.00;99.90;;;;;;5020998;28;20620;-57
2021/11/28 07:04:53;;;;;;;5.45;1.67;;;1.00;99.90;;;;;;5020252;28;20143;-53
2021/11/28 07:07:20;;;;;;;3.65;1.55;;;1.00;99.90;;;;;;5019044;28;20050;-52
2021/11/28 07:09:47;;;;;;;4.57;1.67;;;1.00;99.90;;;;;;5016505;28;20049;-56
2021/11/28 07:12:14;;;;;;;5.75;1.75;;;1.10;99.90;;;;;;5022434;28;20132;-55
2021/11/28 07:14:41;;;;;;;6.47;1.70;;;1.10;99.90;;;;;;5023611;28;20107;-52
2021/11/28 07:17:08;;;;;;;4.85;1.70;;;1.10;99.90;;;;;;5016227;28;20091;-56
2021/11/28 07:19:35;;;;;;;1.30;0.85;;;1.10;99.90;;;;;;5023661;28;20057;-56
2021/11/28 07:22:02;;;;;;;2.80;1.10;;;1.10;99.90;;;;;;5024609;28;20111;-57
2021/11/28 07:24:29;;;;;;;3.47;1.40;;;1.10;99.90;;;;;;5024937;28;20095;-56
2021/11/28 07:26:56;;;;;;;4.22;1.50;;;1.10;99.90;;;;;;5023108;28;20080;-53
2021/11/28 07:29:22;;;;;;;7.53;1.58;;;1.10;99.90;;;;;;5021907;28;20073;-53
2021/11/28 07:31:49;;;;;;;4.97;1.38;;;1.10;99.90;;;;;;5025386;28;20069;-56
2021/11/28 07:34:16;;;;;;;2.90;1.20;;;1.10;99.90;;;;;;5022435;28;20448;-56
2021/11/28 07:36:43;;;;;;;3.55;0.98;;;1.10;99.90;;;;;;5025594;28;20048;-56
2021/11/28 07:39:10;;;;;;;4.47;1.33;;;1.10;99.90;;;;;;5024560;28;20041;-56
2021/11/28 07:41:37;;;;;;;4.32;1.50;;;1.10;99.90;;;;;;5024028;28;20213;-56
2021/11/28 07:44:04;;;;;;;7.70;2.33;;;1.10;99.90;;;;;;5022193;28;20057;-55
2021/11/28 07:46:30;;;;;;;4.95;1.52;;;1.10;99.90;;;;;;5022964;28;20099;-57
2021/11/28 07:48:57;;;;;;;3.25;1.10;;;1.10;99.90;;;;;;5023579;28;20493;-56
2021/11/28 07:51:24;;;;;;;3.08;0.90;;;1.10;99.90;;;;;;5023519;28;20103;-56
2021/11/28 07:53:51;;;;;;;3.67;1.15;;;1.10;99.90;;;;;;5024018;28;20053;-57
2021/11/28 07:56:19;;;;;;;4.50;1.40;;;1.10;99.90;;;;;;5015533;28;20073;-56
2021/11/28 07:58:46;;;;;;;2.20;0.98;;;1.10;99.90;;;;;;5015377;28;20529;-57
2021/11/28 08:01:13;;;;;;;2.63;1.02;;;1.00;99.90;;;;;;5016116;28;20072;-56
2021/11/28 08:03:40;;;;;;;2.17;1.00;;;1.00;99.90;;;;;;5017271;28;20188;-57
2021/11/28 08:06:07;;;;;;;3.40;1.23;;;1.10;99.90;;;;;;5017716;28;20057;-57
2021/11/28 08:08:35;;;;;;;3.03;0.93;;;1.10;99.90;;;;;;5016657;28;20157;-59
2021/11/28 08:11:02;;;;;;;3.60;1.58;;;1.00;99.90;;;;;;5015875;28;20524;-58
2021/11/28 08:13:28;;;;;;;4.47;1.38;;;1.10;99.80;;;;;;5008928;28;20053;-58
2021/11/28 08:15:55;;;;;;;3.55;1.02;;;1.10;99.90;;;;;;5016476;28;20049;-55
2021/11/28 08:18:22;;;;;;;2.75;1.05;;;1.10;99.60;;;;;;5015863;28;20385;-54
2021/11/28 08:20:49;;;;;;;2.03;0.93;;;1.10;99.90;;;;;;5015594;28;20477;-57
2021/11/28 08:23:16;;;;;;;2.92;1.05;;;1.10;99.80;;;;;;5016963;28;20450;-57
2021/11/28 08:25:42;;;;;;;3.85;1.10;;;1.10;99.60;;;;;;5017520;28;20132;-56
2021/11/28 08:28:09;;;;;;;4.50;1.05;;;1.10;99.60;;;;;;5020096;28;20775;-56
2021/11/28 08:30:36;;;;;;;2.15;1.23;;;1.10;99.20;;;;;;5020568;28;20137;-58
2021/11/28 08:33:03;;;;;;;6.50;1.50;;;1.10;99.80;;;;;;5021480;28;20076;-58
2021/11/28 08:35:30;;;;;;;2.92;1.02;;;1.10;99.80;;;;;;5022041;28;20156;-58
2021/11/28 08:37:57;;;;;;;2.97;1.20;;;1.10;99.30;;;;;;5020707;28;20533;-56
2021/11/28 08:40:24;;;;;;;2.85;1.33;;;1.20;99.30;;;;;;5021603;28;20485;-56
2021/11/28 08:42:51;;;;;;;3.60;1.52;;;1.20;99.30;;;;;;5020333;28;20108;-57
2021/11/28 08:45:18;;;;;;;3.85;1.20;;;1.20;99.10;;;;;;5020172;28;20088;-56
2021/11/28 08:47:45;;;;;;;4.93;1.90;;;1.20;98.60;;;;;;5020192;28;20525;-56
2021/11/28 08:50:14;;;;;;;3.08;1.23;;;1.20;98.60;;;;;;5020549;28;20076;-55
2021/11/28 08:52:45;;;;;;;4.82;1.73;;;1.20;98.80;;;;;;5020852;28;20077;-58
2021/11/28 08:55:12;;;;;;;4.38;1.33;;;1.30;98.60;;;;;;5021595;28;20675;-55
2021/11/28 08:57:39;;;;;;;3.63;1.75;;;1.30;98.90;;;;;;5021794;28;20095;-56
2021/11/28 09:00:07;;;;;;;3.92;1.40;;;1.30;98.60;;;;;;5020574;28;20136;-56
2021/11/28 09:02:33;;;;;;;5.00;0.95;;;1.40;98.80;;;;;;5021988;28;20073;-56
2021/11/28 09:05:01;;;;;;;3.40;1.40;;;1.40;98.30;;;;;;5021140;28;20532;-54
2021/11/28 09:07:28;;;;;;;4.55;1.35;;;1.40;98.20;;;;;;5021498;28;20626;-58
2021/11/28 09:09:55;;;;;;;3.92;1.40;;;1.40;98.30;;;;;;5021466;28;20084;-56
2021/11/28 09:12:21;;;;;;;3.10;1.23;;;1.40;98.30;;;;;;5021266;28;20156;-56
2021/11/28 09:14:48;;;;;;;6.00;1.40;;;1.40;98.20;;;;;;5020911;28;20140;-57
2021/11/28 09:17:16;;;;;;;5.10;2.17;;;1.40;98.10;;;;;;5021760;28;20053;-56
2021/11/28 09:20:05;;;;;;;5.18;1.75;;;1.50;97.90;;;;;;5020455;28;20153;-56
2021/11/28 09:25:16;;;;;;;2.55;1.15;;;1.50;97.60;;;;;;5019897;28;20148;-55
2021/11/28 09:27:49;;;;;;;3.78;1.33;;;1.50;97.40;;;;;;5019867;28;20088;-57
2021/11/28 09:30:17;;;;;;;4.22;1.48;;;1.60;97.40;;;;;;5017780;28;20158;-57
2021/11/28 09:32:44;;;;;;;4.43;1.40;;;1.60;97.40;;;;;;5020208;28;20708;-57
2021/11/28 09:35:11;;;;;;;4.00;1.70;;;1.70;97.40;;;;;;5020243;28;20087;-56
2021/11/28 09:37:38;;;;;;;4.22;1.30;;;1.70;97.20;;;;;;5019065;28;20477;-57
2021/11/28 09:40:07;;;;;;;1.48;0.90;;;1.70;97.00;;;;;;5019360;28;20059;-57
2021/11/28 09:42:37;;;;;;;3.40;1.20;;;1.70;97.10;;;;;;5019523;28;20223;-55
2021/11/28 09:45:05;;;;;;;2.28;1.15;;;1.70;97.10;;;;;;5018788;28;20077;-55
2021/11/28 09:47:32;;;;;;;4.13;1.80;;;1.70;96.70;;;;;;5019076;28;20077;-52
2021/11/28 09:50:00;;;;;;;3.95;1.00;;;1.80;96.80;;;;;;5019598;28;20481;-54
2021/11/28 09:52:28;;;;;;;3.78;1.30;;;1.80;96.40;;;;;;5002254;28;20165;-56
2021/11/28 09:54:56;;;;;;;5.07;0.95;;;1.80;97.00;;;;;;5017875;28;20060;-58
2021/11/28 09:57:23;;;;;;;2.42;1.00;;;1.90;96.70;;;;;;5019411;28;20077;-52
2021/11/28 09:59:51;;;;;;;3.00;1.15;;;2.00;96.10;;;;;;5018471;28;20132;-57
2021/11/28 10:02:29;;;;;;;4.15;1.17;;;1.90;96.50;;;;;;5019959;28;20136;-57
2021/11/28 10:04:57;;;;;;;3.10;0.98;;;2.00;96.00;;;;;;5019390;28;20049;-55
2021/11/28 10:07:24;;;;;;;2.45;0.90;;;2.10;96.20;;;;;;5019661;28;20103;-56
2021/11/28 10:09:50;;;;;;;4.85;1.20;;;2.10;96.20;;;;;;5018972;28;20072;-57
2021/11/28 10:12:18;;;;;;;4.35;1.17;;;2.10;95.80;;;;;;5019014;28;20150;-56
2021/11/28 10:15:06;;;;;;;2.38;0.93;;;2.10;95.90;;;;;;5017205;28;20592;-57
2021/11/28 10:17:34;;;;;;;2.88;1.10;;;2.20;96.20;;;;;;5020044;28;20354;-56
2021/11/28 10:20:03;;;;;;;1.98;0.70;;;2.30;96.20;;;;;;4981139;28;1106954;-54
2021/11/28 10:22:30;;;;;;;2.80;1.60;;;2.30;95.70;;;;;;5020980;28;20421;-55
2021/11/28 10:25:04;;;;;;;2.40;1.15;;;2.30;95.40;;;;;;5019894;28;20065;-54
2021/11/28 10:27:45;;;;;;;2.10;0.98;;;2.30;95.80;;;;;;5020438;28;20060;-55
2021/11/28 10:30:30;;;;;;;1.75;0.70;;;2.40;95.20;;;;;;5019211;28;20156;-54
2021/11/28 10:33:07;;;;;;;4.63;2.47;;;2.40;95.90;;;;;;5019258;28;20139;-54
2021/11/28 10:35:34;;;;;;;3.95;1.40;;;2.40;95.30;;;;;;5019704;28;20053;-54
2021/11/28 10:38:12;;;;;;;3.15;0.90;;;2.40;95.10;;;;;;5020265;28;20049;-53
2021/11/28 10:40:43;;;;;;;4.32;1.58;;;2.50;95.40;;;;;;5019924;28;20081;-56
2021/11/28 10:43:15;;;;;;;3.05;1.08;;;2.50;95.30;;;;;;5019755;28;20124;-56
2021/11/28 10:45:47;;;;;;;2.53;1.27;;;2.50;95.30;;;;;;5019138;28;20092;-56
2021/11/28 10:48:24;;;;;;;2.33;1.10;;;2.50;95.10;;;;;;5018917;28;20595;-56
2021/11/28 10:50:51;;;;;;;5.57;1.38;;;2.60;95.50;;;;;;5019267;28;20758;-55
2021/11/28 10:53:20;;;;;;;3.08;1.13;;;2.70;95.50;;;;;;5019610;28;20111;-55
2021/11/28 10:55:55;;;;;;;2.00;0.82;;;2.70;95.10;;;;;;5019973;28;20111;-55
2021/11/28 10:58:30;;;;;;;5.45;1.42;;;2.70;95.00;;;;;;5019463;28;20091;-56
2021/11/28 11:01:00;;;;;;;3.97;1.15;;;2.70;95.30;;;;;;5018642;28;20057;-55
2021/11/28 11:03:30;;;;;;;2.90;1.02;;;2.80;94.80;;;;;;5019357;28;20064;-56
2021/11/28 11:06:19;;;;;;;2.42;0.80;;;2.80;94.70;;;;;;5019850;28;20405;-56
2021/11/28 11:08:47;;;;;;;4.00;1.20;;;2.90;94.50;;;;;;5019574;28;20057;-55
2021/11/28 11:11:15;;;;;;;3.75;0.90;;;2.90;94.40;;;;;;5018963;28;20081;-54
2021/11/28 11:13:57;;;;;;;3.05;1.08;;;3.00;95.20;;;;;;5018972;28;20103;-57
2021/11/28 11:16:33;;;;;;;3.08;1.20;;;3.10;94.60;;;;;;5019048;28;20651;-56
2021/11/28 11:19:30;;;;;;;1.35;0.70;;;3.10;94.80;;;;;;5017709;28;20567;-55
2021/11/28 11:22:12;;;;;;;2.10;1.05;;;3.20;94.20;;;;;;5019399;28;20497;-55
2021/11/28 11:24:41;;;;;;;2.78;1.00;;;3.30;94.60;;;;;;5018695;28;20076;-56
2021/11/28 11:27:12;;;;;;;4.22;1.38;;;3.30;94.30;;;;;;5019501;28;20076;-54
2021/11/28 11:29:40;;;;;;;3.65;1.38;;;3.40;94.00;;;;;;5017842;28;20409;-58
2021/11/28 11:32:12;;;;;;;3.70;1.10;;;3.40;93.50;;;;;;5019597;28;20873;-56
2021/11/28 11:34:40;;;;;;;5.90;1.60;;;3.50;93.90;;;;;;5018875;28;20045;-55
2021/11/28 11:37:13;;;;;;;3.85;1.17;;;3.60;93.90;;;;;;5018124;28;20322;-53
2021/11/28 11:39:43;;;;;;;4.05;1.20;;;3.70;93.60;;;;;;5018882;28;20342;-55
2021/11/28 11:42:11;;;;;;;2.75;1.20;;;3.80;93.60;;;;;;5017625;28;20091;-53
2021/11/28 11:44:38;;;;;;;1.73;0.90;;;3.90;93.30;;;;;;5018247;28;20160;-55
2021/11/28 11:47:05;;;;;;;2.30;1.13;;;3.90;92.90;;;;;;5019279;28;20146;-56
2021/11/28 11:49:32;;;;;;;3.88;1.50;;;3.90;92.50;;;;;;5018188;28;20077;-56
2021/11/28 11:51:59;;;;;;;3.22;1.20;;;4.00;92.90;;;;;;5019379;28;20144;-57
2021/11/28 11:54:27;;;;;;;4.32;1.27;;;4.10;92.40;;;;;;5018466;28;20072;-56
2021/11/28 11:57:03;;;;;;;2.90;1.27;;;4.10;92.80;;;;;;5001886;28;20077;-58
2021/11/28 11:59:52;;;;;;;2.95;1.13;;;4.20;92.20;;;;;;5015043;28;20176;-57
2021/11/28 12:02:38;;;;;;;4.78;1.35;;;4.30;92.20;;;;;;5017463;28;20144;-57
2021/11/28 12:05:23;;;;;;;4.07;1.38;;;4.40;91.90;;;;;;5018490;28;20564;-57
2021/11/28 12:07:54;;;;;;;2.95;1.30;;;4.50;92.00;;;;;;5018915;28;20416;-57
2021/11/28 12:10:32;;;;;;;4.07;1.30;;;4.70;91.90;;;;;;5019102;28;20077;-57
2021/11/28 12:13:01;;;;;;;2.60;1.15;;;4.80;90.80;;;;;;5023809;28;20089;-55
2021/11/28 12:15:30;;;;;;;5.63;1.40;;;4.80;91.20;;;;;;5024254;28;20069;-56
2021/11/28 12:17:57;;;;;;;2.28;1.15;;;4.70;91.10;;;;;;5024445;28;20140;-55
2021/11/28 12:20:43;;;;;;;3.20;1.02;;;4.60;91.00;;;;;;5023388;28;20084;-55
2021/11/28 12:23:12;;;;;;;2.47;1.23;;;4.70;91.50;;;;;;5024739;28;20513;-57
2021/11/28 12:25:43;;;;;;;4.05;1.90;;;5.00;91.10;;;;;;5025282;28;20088;-56
2021/11/28 12:28:31;;;;;;;2.40;1.35;;;5.00;90.10;;;;;;5024603;28;20111;-56
2021/11/28 12:31:27;;;;;;;3.10;1.20;;;5.00;90.10;;;;;;5024467;28;20108;-57
2021/11/28 12:33:54;;;;;;;3.15;1.08;;;5.20;89.90;;;;;;5024813;28;20077;-55
2021/11/28 12:36:47;;;;;;;2.83;1.42;;;5.40;90.00;;;;;;5024805;28;20050;-57
2021/11/28 12:39:19;;;;;;;3.97;1.50;;;5.40;88.30;;;;;;5022123;28;20497;-57
2021/11/28 12:41:47;;;;;;;3.35;1.20;;;5.50;89.00;;;;;;5019152;28;20128;-57
2021/11/28 12:44:30;;;;;;;2.63;1.33;;;5.60;88.30;;;;;;5017318;28;20081;-52
2021/11/28 12:46:59;;;;;;;3.90;1.17;;;5.60;86.90;;;;;;5019833;28;20053;-56
2021/11/28 12:49:48;;;;;;;5.32;1.55;;;5.70;87.30;;;;;;5018691;28;20875;-53
2021/11/28 12:52:49;;;;;;;2.80;1.50;;;5.80;87.40;;;;;;5018879;28;20056;-57
2021/11/28 12:55:18;;;;;;;2.47;1.23;;;5.70;88.10;;;;;;5019592;28;20095;-57
2021/11/28 12:58:01;;;;;;;2.85;1.35;;;5.70;86.90;;;;;;5018023;28;20141;-58
2021/11/28 13:00:49;;;;;;;2.50;1.05;;;5.90;86.60;;;;;;5017822;28;20124;-56
2021/11/28 13:03:16;;;;;;;2.60;1.25;;;5.90;85.60;;;;;;5018675;28;20375;-55
2021/11/28 13:05:47;;;;;;;2.88;1.25;;;6.00;85.60;;;;;;5018968;28;20088;-57
2021/11/28 13:08:13;;;;;;;3.58;1.70;;;6.10;84.70;;;;;;5018982;28;20201;-56
2021/11/28 13:10:44;;;;;;;2.70;1.10;;;6.10;83.90;;;;;;5019045;28;20093;-56
2021/11/28 13:13:14;;;;;;;2.90;1.23;;;6.30;85.50;;;;;;5019826;28;20151;-56